Akademic — LZDA — position and weather

sailwx.info

Track history (hours):
 
Tides and Currents Weather Stations Pressure Air Temp Water Temp Dewpoint Dewpoint Depression Visibility Wind Speed Wind Dir Waves Ship Positions

Oceanographic research ship Akademic (Bulgaria)

Detailed information on ship capabilities available from University of Delaware's Ocean Information Center.

Last reported at 2017-Oct-21 23:23 UTC. Time now 2017-Nov-21 00:44 UTC.
Position N 43°22' E 028°27'.
Warning: this ship's position is 30 days out of date.

Length 55 m; draft 4.8 m.

Type: Other ship. MMSI: 207038000.

Date/timePositionNaut miles runAvg speedWind from/ knotsBaromVisibWave heightAir tempDewpointWater temp
2017-Oct-21 23:23N 43°22' E 028°27'0 0.0
2017-Oct-21 22:56N 43°22' E 028°27'22 1.3
2017-Oct-21 06:29N 43°42' E 028°38'1 1.0
2017-Oct-21 05:55N 43°43' E 028°39'2 5.7
2017-Oct-21 05:30N 43°43' E 028°42'3 6.1
2017-Oct-21 05:00N 43°43' E 028°46'4 7.0
2017-Oct-21 04:30N 43°43' E 028°51'0 0.4
2017-Oct-21 04:00N 43°43' E 028°51'0 0.4
2017-Oct-21 03:30N 43°42' E 028°51'0 0.8
2017-Oct-21 03:00N 43°42' E 028°52'2 4.3
2017-Oct-21 02:29N 43°41' E 028°54'3 5.3
2017-Oct-21 01:58N 43°40' E 028°58'4 5.1
2017-Oct-21 01:08N 43°38' E 029°03'1 5.0
2017-Oct-21 01:00N 43°37' E 029°04'2 5.0
2017-Oct-21 00:30N 43°36' E 029°06'3 5.1
2017-Oct-21 00:00N 43°35' E 029°09'3 5.1
2017-Oct-20 23:30N 43°33' E 029°12'2 4.9
2017-Oct-20 23:00N 43°32' E 029°15'3 5.2
2017-Oct-20 22:30N 43°31' E 029°18'3 5.5
2017-Oct-20 22:00N 43°29' E 029°22'3 5.4
2017-Oct-20 21:30N 43°28' E 029°25'3 5.1
2017-Oct-20 21:00N 43°26' E 029°28'3 5.1
2017-Oct-20 20:30N 43°25' E 029°31'0 0.9
2017-Oct-20 19:58N 43°25' E 029°31'1 2.7
2017-Oct-20 19:28N 43°26' E 029°30'3 7.4
2017-Oct-20 19:00N 43°27' E 029°26'4 7.3
2017-Oct-20 18:30N 43°29' E 029°21'4 7.5
2017-Oct-20 18:00N 43°30' E 029°17'1 1.9
2017-Oct-20 17:30N 43°31' E 029°16'1 1.6
2017-Oct-20 17:00N 43°32' E 029°16'4 7.8
2017-Oct-20 16:30N 43°35' E 029°19'2 4.2
2017-Oct-20 16:00N 43°37' E 029°20'0 0.6
2017-Oct-20 15:30N 43°37' E 029°20'4 7.6
2017-Oct-20 15:00N 43°40' E 029°17'2 3.5
2017-Oct-20 14:30N 43°42' E 029°16'5 4.7
2017-Oct-20 13:30N 43°40' E 029°10'4 7.3
2017-Oct-20 13:00N 43°39' E 029°05'4 7.6
2017-Oct-20 12:30N 43°38' E 028°60'7 3.8
2017-Oct-20 10:39N 43°31' E 029°01'0 0.5
2017-Oct-20 10:30N 43°31' E 029°01'5 6.0
2017-Oct-20 09:40N 43°28' E 028°55'0 2.1
2017-Oct-20 09:28N 43°28' E 028°55'2 2.5
2017-Oct-20 08:38N 43°26' E 028°57'1 7.7
2017-Oct-20 08:30N 43°26' E 028°58'3 5.1
2017-Oct-20 08:00N 43°24' E 029°01'0 0.1
2017-Oct-20 07:28N 43°24' E 029°01'2 3.5
2017-Oct-20 06:49N 43°23' E 028°58'2 7.2
2017-Oct-20 06:29N 43°22' E 028°55'2 4.1
2017-Oct-20 05:58N 43°21' E 028°52'0 0.3
2017-Oct-20 05:30N 43°21' E 028°52'3 6.8
2017-Oct-20 05:00N 43°19' E 028°48'2 4.5
2017-Oct-20 04:30N 43°18' E 028°46'0 0.6
2017-Oct-20 04:00N 43°18' E 028°45'3 4.9
2017-Oct-20 03:28N 43°20' E 028°45'0 0.7
2017-Oct-20 03:00N 43°20' E 028°44'0 0.7
2017-Oct-20 02:30N 43°20' E 028°44'0 0.7
2017-Oct-20 02:00N 43°19' E 028°44'0 0.8
2017-Oct-20 01:30N 43°19' E 028°43'0 0.8
2017-Oct-20 01:00N 43°19' E 028°43'0 0.7
2017-Oct-20 00:30N 43°19' E 028°43'0 0.7
2017-Oct-19 23:56N 43°18' E 028°42'0 0.8
2017-Oct-19 23:28N 43°18' E 028°42'0 0.8
2017-Oct-19 23:00N 43°18' E 028°42'0 0.7
2017-Oct-19 22:30N 43°17' E 028°41'0 0.7
2017-Oct-19 22:00N 43°17' E 028°41'0 0.7
2017-Oct-19 21:30N 43°17' E 028°41'0 0.7
2017-Oct-19 21:00N 43°16' E 028°41'0 0.7
2017-Oct-19 20:30N 43°16' E 028°41'1 1.1
2017-Oct-19 20:00N 43°16' E 028°40'3 6.1
2017-Oct-19 19:27N 43°18' E 028°36'0 0.9
2017-Oct-19 19:00N 43°18' E 028°35'3 5.9
2017-Oct-19 18:30N 43°15' E 028°33'1 2.0
2017-Oct-19 18:00N 43°14' E 028°32'1 2.2
2017-Oct-19 17:30N 43°14' E 028°33'4 8.6
2017-Oct-19 17:00N 43°11' E 028°37'1 1.5
2017-Oct-19 16:30N 43°10' E 028°38'2 3.6
2017-Oct-19 16:00N 43°10' E 028°35'4 7.7
2017-Oct-19 15:30N 43°10' E 028°30'2 4.9
2017-Oct-19 15:00N 43°10' E 028°27'0 0.9
2017-Oct-19 14:29N 43°10' E 028°26'4 7.0
2017-Oct-19 13:54N 43°10' E 028°20'  
2017-Oct-12 22:17N 42°49' E 028°59'0 0.2
2017-Oct-12 21:42N 42°49' E 028°59'0 0.2
2017-Oct-12 21:30N 42°49' E 028°59'0 0.2
2017-Oct-12 21:00N 42°49' E 028°60'6 3.3
2017-Oct-12 19:12N 42°50' E 028°51'2 8.2
2017-Oct-12 19:00N 42°50' E 028°49'4 8.1
2017-Oct-12 18:30N 42°51' E 028°44'2 4.4
2017-Oct-12 17:57N 42°51' E 028°40'0 0.7
2017-Oct-12 17:30N 42°51' E 028°40'1 0.7
2017-Oct-12 16:37N 42°50' E 028°40'  
Track history (hours):
 
Tides and Currents Weather Stations Pressure Air Temp Water Temp Dewpoint Dewpoint Depression Visibility Wind Speed Wind Dir Waves Ship Positions

Oceanographic research ship Akademic (Bulgaria)

Detailed information on ship capabilities available from University of Delaware's Ocean Information Center.

Last reported at 2017-Oct-21 23:23 UTC. Time now 2017-Nov-21 00:44 UTC.
Position N 43°22' E 028°27'.
Warning: this ship's position is 30 days out of date.

Length 55 m; draft 4.8 m.

Type: Other ship. MMSI: 207038000.

Date/timePositionNaut miles runAvg speedWind from/ knotsBaromVisibWave heightAir tempDewpointWater temp
2017-Oct-21 23:23N 43°22' E 028°27'0 0.0
2017-Oct-21 22:56N 43°22' E 028°27'22 1.3
2017-Oct-21 06:29N 43°42' E 028°38'1 1.0
2017-Oct-21 05:55N 43°43' E 028°39'2 5.7
2017-Oct-21 05:30N 43°43' E 028°42'3 6.1
2017-Oct-21 05:00N 43°43' E 028°46'4 7.0
2017-Oct-21 04:30N 43°43' E 028°51'0 0.4
2017-Oct-21 04:00N 43°43' E 028°51'0 0.4
2017-Oct-21 03:30N 43°42' E 028°51'0 0.8
2017-Oct-21 03:00N 43°42' E 028°52'2 4.3
2017-Oct-21 02:29N 43°41' E 028°54'3 5.3
2017-Oct-21 01:58N 43°40' E 028°58'4 5.1
2017-Oct-21 01:08N 43°38' E 029°03'1 5.0
2017-Oct-21 01:00N 43°37' E 029°04'2 5.0
2017-Oct-21 00:30N 43°36' E 029°06'3 5.1
2017-Oct-21 00:00N 43°35' E 029°09'3 5.1
2017-Oct-20 23:30N 43°33' E 029°12'2 4.9
2017-Oct-20 23:00N 43°32' E 029°15'3 5.2
2017-Oct-20 22:30N 43°31' E 029°18'3 5.5
2017-Oct-20 22:00N 43°29' E 029°22'3 5.4
2017-Oct-20 21:30N 43°28' E 029°25'3 5.1
2017-Oct-20 21:00N 43°26' E 029°28'3 5.1
2017-Oct-20 20:30N 43°25' E 029°31'0 0.9
2017-Oct-20 19:58N 43°25' E 029°31'1 2.7
2017-Oct-20 19:28N 43°26' E 029°30'3 7.4
2017-Oct-20 19:00N 43°27' E 029°26'4 7.3
2017-Oct-20 18:30N 43°29' E 029°21'4 7.5
2017-Oct-20 18:00N 43°30' E 029°17'1 1.9
2017-Oct-20 17:30N 43°31' E 029°16'1 1.6
2017-Oct-20 17:00N 43°32' E 029°16'4 7.8
2017-Oct-20 16:30N 43°35' E 029°19'2 4.2
2017-Oct-20 16:00N 43°37' E 029°20'0 0.6
2017-Oct-20 15:30N 43°37' E 029°20'4 7.6
2017-Oct-20 15:00N 43°40' E 029°17'2 3.5
2017-Oct-20 14:30N 43°42' E 029°16'5 4.7
2017-Oct-20 13:30N 43°40' E 029°10'4 7.3
2017-Oct-20 13:00N 43°39' E 029°05'4 7.6
2017-Oct-20 12:30N 43°38' E 028°60'7 3.8
2017-Oct-20 10:39N 43°31' E 029°01'0 0.5
2017-Oct-20 10:30N 43°31' E 029°01'5 6.0
2017-Oct-20 09:40N 43°28' E 028°55'0 2.1
2017-Oct-20 09:28N 43°28' E 028°55'2 2.5
2017-Oct-20 08:38N 43°26' E 028°57'1 7.7
2017-Oct-20 08:30N 43°26' E 028°58'3 5.1
2017-Oct-20 08:00N 43°24' E 029°01'0 0.1
2017-Oct-20 07:28N 43°24' E 029°01'2 3.5
2017-Oct-20 06:49N 43°23' E 028°58'2 7.2
2017-Oct-20 06:29N 43°22' E 028°55'2 4.1
2017-Oct-20 05:58N 43°21' E 028°52'0 0.3
2017-Oct-20 05:30N 43°21' E 028°52'3 6.8
2017-Oct-20 05:00N 43°19' E 028°48'2 4.5
2017-Oct-20 04:30N 43°18' E 028°46'0 0.6
2017-Oct-20 04:00N 43°18' E 028°45'3 4.9
2017-Oct-20 03:28N 43°20' E 028°45'0 0.7
2017-Oct-20 03:00N 43°20' E 028°44'0 0.7
2017-Oct-20 02:30N 43°20' E 028°44'0 0.7
2017-Oct-20 02:00N 43°19' E 028°44'0 0.8
2017-Oct-20 01:30N 43°19' E 028°43'0 0.8
2017-Oct-20 01:00N 43°19' E 028°43'0 0.7
2017-Oct-20 00:30N 43°19' E 028°43'0 0.7
2017-Oct-19 23:56N 43°18' E 028°42'0 0.8
2017-Oct-19 23:28N 43°18' E 028°42'0 0.8
2017-Oct-19 23:00N 43°18' E 028°42'0 0.7
2017-Oct-19 22:30N 43°17' E 028°41'0 0.7
2017-Oct-19 22:00N 43°17' E 028°41'0 0.7
2017-Oct-19 21:30N 43°17' E 028°41'0 0.7
2017-Oct-19 21:00N 43°16' E 028°41'0 0.7
2017-Oct-19 20:30N 43°16' E 028°41'1 1.1
2017-Oct-19 20:00N 43°16' E 028°40'3 6.1
2017-Oct-19 19:27N 43°18' E 028°36'0 0.9
2017-Oct-19 19:00N 43°18' E 028°35'3 5.9
2017-Oct-19 18:30N 43°15' E 028°33'1 2.0
2017-Oct-19 18:00N 43°14' E 028°32'1 2.2
2017-Oct-19 17:30N 43°14' E 028°33'4 8.6
2017-Oct-19 17:00N 43°11' E 028°37'1 1.5
2017-Oct-19 16:30N 43°10' E 028°38'2 3.6
2017-Oct-19 16:00N 43°10' E 028°35'4 7.7
2017-Oct-19 15:30N 43°10' E 028°30'2 4.9
2017-Oct-19 15:00N 43°10' E 028°27'0 0.9
2017-Oct-19 14:29N 43°10' E 028°26'4 7.0
2017-Oct-19 13:54N 43°10' E 028°20'  
2017-Oct-12 22:17N 42°49' E 028°59'0 0.2
2017-Oct-12 21:42N 42°49' E 028°59'0 0.2
2017-Oct-12 21:30N 42°49' E 028°59'0 0.2
2017-Oct-12 21:00N 42°49' E 028°60'6 3.3
2017-Oct-12 19:12N 42°50' E 028°51'2 8.2
2017-Oct-12 19:00N 42°50' E 028°49'4 8.1
2017-Oct-12 18:30N 42°51' E 028°44'2 4.4
2017-Oct-12 17:57N 42°51' E 028°40'0 0.7
2017-Oct-12 17:30N 42°51' E 028°40'1 0.7
2017-Oct-12 16:37N 42°50' E 028°40'  

Dump ship's entire track history